Time;durP1;ratioP1;P1;durP2;ratioP2;P2;SDS_P1;SDS_P2;PMS_P1;PMS_P2;Temp;Humidity;BMP_temperature;BMP_pressure;BME280_temperature;BME280_humidity;BME280_pressure;Samples;Min_cycle;Max_cycle;Signal;HPM_P1;HPM_P2
2022/10/04 00:01:50;;;;;;;2.17;0.60;;;11.60;99.90;;;;;;4923726;29;20138;-86
2022/10/04 00:04:15;;;;;;;2.45;0.70;;;11.80;99.90;;;;;;4918277;29;20056;-85
2022/10/04 00:06:51;;;;;;;3.28;0.82;;;11.60;99.90;;;;;;4917456;29;20070;-86
2022/10/04 00:09:32;;;;;;;1.48;0.70;;;11.60;99.90;;;;;;4918519;29;20055;-87
2022/10/04 00:11:59;;;;;;;3.22;0.80;;;12.20;99.90;;;;;;4902668;29;20059;-85
2022/10/04 00:14:30;;;;;;;1.83;0.70;;;11.60;99.90;;;;;;4934600;29;20079;-84
2022/10/04 00:16:58;;;;;;;2.25;0.70;;;11.60;99.90;;;;;;4921311;29;20055;-85
2022/10/04 00:19:40;;;;;;;1.95;0.77;;;11.60;99.90;;;;;;4899378;29;20056;-85
2022/10/04 00:22:09;;;;;;;1.75;0.82;;;11.70;99.90;;;;;;4900173;29;20169;-85
2022/10/04 00:24:36;;;;;;;2.03;0.70;;;11.50;99.90;;;;;;4903238;29;20055;-85
2022/10/04 00:27:22;;;;;;;1.55;0.73;;;11.40;99.90;;;;;;4921145;29;20447;-85
2022/10/04 00:56:47;;;;;;;3.30;0.82;;;11.10;99.90;;;;;;4922165;23;20131;-85
2022/10/04 00:59:21;;;;;;;2.08;0.80;;;11.40;99.90;;;;;;4919990;29;20052;-84
2022/10/04 01:01:53;;;;;;;1.08;0.75;;;11.40;99.90;;;;;;4903136;29;20492;-85
2022/10/04 01:04:41;;;;;;;3.10;1.00;;;11.90;99.90;;;;;;4903228;29;20531;-85
2022/10/04 01:07:10;;;;;;;1.58;0.80;;;11.30;99.90;;;;;;4902860;29;20087;-85
2022/10/04 01:09:44;;;;;;;4.30;0.70;;;11.40;99.90;;;;;;4903658;29;20071;-85
2022/10/04 01:12:34;;;;;;;1.40;0.70;;;11.50;99.90;;;;;;4903142;29;20052;-88
2022/10/04 01:15:06;;;;;;;1.98;1.00;;;11.70;99.90;;;;;;4902638;29;20119;-84
2022/10/04 01:17:32;;;;;;;2.25;1.13;;;11.40;99.90;;;;;;4903138;29;20055;-85
2022/10/04 01:19:58;;;;;;;4.15;1.15;;;11.40;99.90;;;;;;4918524;29;20059;-87
2022/10/04 01:22:41;;;;;;;2.15;0.80;;;11.40;99.90;;;;;;4903178;29;20056;-85
2022/10/04 01:25:08;;;;;;;3.53;0.93;;;11.40;99.90;;;;;;4920274;29;20052;-85
2022/10/04 01:27:39;;;;;;;1.30;0.70;;;11.40;99.90;;;;;;4902541;29;20052;-86
2022/10/04 01:30:11;;;;;;;8.60;1.48;;;11.40;99.90;;;;;;4919170;29;20048;-85
2022/10/04 01:32:38;;;;;;;3.78;0.90;;;11.00;99.90;;;;;;4919421;29;20060;-86
2022/10/04 01:35:07;;;;;;;2.58;0.88;;;11.60;99.90;;;;;;4918289;29;20408;-86
2022/10/04 01:37:33;;;;;;;2.28;0.90;;;11.50;99.90;;;;;;4902027;29;20087;-86
2022/10/04 01:39:59;;;;;;;11.93;1.33;;;11.50;99.90;;;;;;4902298;29;20067;-86
2022/10/04 01:42:39;;;;;;;2.38;1.25;;;11.60;99.90;;;;;;4918968;29;20051;-88
2022/10/04 01:45:18;;;;;;;5.47;1.40;;;12.60;99.90;;;;;;4901956;29;20056;-86
2022/10/04 01:47:57;;;;;;;4.43;1.73;;;11.70;99.90;;;;;;4901344;29;20052;-85
2022/10/04 01:50:34;;;;;;;3.53;1.30;;;11.70;99.90;;;;;;4901874;29;20056;-85
2022/10/04 01:53:32;;;;;;;2.30;1.02;;;11.70;99.90;;;;;;4902145;29;20135;-86
2022/10/04 01:56:15;;;;;;;6.03;1.30;;;11.80;99.90;;;;;;4914522;29;20401;-87
2022/10/04 01:59:03;;;;;;;6.55;1.88;;;12.10;99.90;;;;;;4907318;29;20048;-86
2022/10/04 02:01:32;;;;;;;5.72;1.30;;;11.90;99.90;;;;;;4918711;29;20418;-86
2022/10/04 02:04:00;;;;;;;5.00;1.60;;;11.90;99.90;;;;;;4917444;29;20131;-86
2022/10/04 02:06:28;;;;;;;4.38;1.40;;;11.90;99.90;;;;;;4918458;29;20107;-85
2022/10/04 02:08:56;;;;;;;4.15;1.70;;;12.20;99.90;;;;;;4901298;29;20060;-87
2022/10/04 02:11:23;;;;;;;5.55;1.70;;;11.90;99.90;;;;;;4901362;29;20048;-86
2022/10/04 02:13:54;;;;;;;8.88;1.65;;;12.70;99.90;;;;;;4918175;29;20193;-86
2022/10/04 02:16:21;;;;;;;6.03;2.08;;;12.10;99.90;;;;;;4918497;29;20511;-86
2022/10/04 02:18:50;;;;;;;5.60;1.80;;;12.60;99.90;;;;;;4901386;29;20504;-86
2022/10/04 02:21:17;;;;;;;4.45;1.65;;;12.00;99.90;;;;;;4918245;29;20580;-87
2022/10/04 02:23:44;;;;;;;7.13;1.90;;;12.90;99.90;;;;;;4886428;29;20058;-86
2022/10/04 02:26:10;;;;;;;2.88;1.02;;;12.00;99.90;;;;;;4920043;29;20040;-88
2022/10/04 02:28:37;;;;;;;1.85;1.00;;;12.00;99.90;;;;;;4919668;29;20576;-86
2022/10/04 02:33:50;;;;;;;;;;;12.00;99.90;;;;;;4921004;29;20056;-85
2022/10/04 02:36:17;;;;;;;2.83;1.00;;;12.20;99.90;;;;;;4920789;29;19919;-86
2022/10/04 02:38:57;;;;;;;3.53;1.08;;;11.90;99.90;;;;;;4903402;29;20090;-86
2022/10/04 02:41:23;;;;;;;3.28;1.00;;;12.10;99.90;;;;;;4924921;29;20036;-85
2022/10/04 02:44:19;;;;;;;1.38;1.00;;;12.00;99.90;;;;;;4922791;29;20079;-85
2022/10/04 02:46:52;;;;;;;5.22;1.23;;;11.30;99.90;;;;;;4913664;29;20140;-84
2022/10/04 02:49:31;;;;;;;3.45;1.20;;;11.90;99.90;;;;;;4920989;29;20459;-86
2022/10/04 02:52:28;;;;;;;1.83;1.23;;;11.90;99.90;;;;;;4928910;29;20122;-84
2022/10/04 02:55:12;;;;;;;5.13;1.27;;;11.80;99.90;;;;;;4909982;29;20059;-84
2022/10/04 02:57:41;;;;;;;6.07;1.52;;;12.30;99.90;;;;;;4904074;29;20060;-86
2022/10/04 03:00:22;;;;;;;5.70;1.40;;;11.80;99.90;;;;;;4923237;29;20048;-86
2022/10/04 03:03:09;;;;;;;3.13;1.30;;;11.90;99.90;;;;;;4901371;29;20056;-85
2022/10/04 03:05:36;;;;;;;2.97;1.30;;;11.90;99.90;;;;;;4917909;29;20063;-85
2022/10/04 03:08:04;;;;;;;2.33;1.13;;;12.10;99.90;;;;;;4900975;29;20064;-85
2022/10/04 03:10:30;;;;;;;4.30;2.38;;;12.60;99.90;;;;;;4917031;29;20060;-85
2022/10/04 03:12:56;;;;;;;4.65;1.45;;;11.90;99.90;;;;;;4917071;29;20062;-86
2022/10/04 03:15:22;;;;;;;2.13;1.33;;;12.40;99.90;;;;;;4885128;29;20095;-85
2022/10/04 03:17:49;;;;;;;3.80;1.67;;;11.90;99.90;;;;;;4900242;29;20481;-85
2022/10/04 03:20:20;;;;;;;1.95;0.93;;;11.90;99.90;;;;;;4917369;29;20059;-87
2022/10/04 03:22:49;;;;;;;3.72;1.30;;;11.90;99.90;;;;;;4916672;29;20644;-86
2022/10/04 03:25:20;;;;;;;2.53;1.10;;;12.40;99.90;;;;;;4916583;29;20163;-85
2022/10/04 03:27:48;;;;;;;3.58;1.17;;;11.90;99.90;;;;;;4900257;29;20056;-85
2022/10/04 03:30:15;;;;;;;4.30;1.33;;;11.90;99.90;;;;;;4916882;29;20056;-85
2022/10/04 03:32:42;;;;;;;2.05;0.90;;;11.90;99.90;;;;;;4916361;29;20540;-86
2022/10/04 03:35:31;;;;;;;3.10;1.17;;;11.90;99.90;;;;;;4916800;29;20136;-85
2022/10/04 03:37:58;;;;;;;3.78;1.00;;;11.80;99.90;;;;;;4900032;29;20070;-88
2022/10/04 03:40:28;;;;;;;3.83;1.58;;;12.30;99.90;;;;;;4916885;29;20051;-85
2022/10/04 03:42:54;;;;;;;1.83;1.10;;;11.50;99.90;;;;;;4916223;29;20055;-86
2022/10/04 03:45:22;;;;;;;4.32;1.30;;;12.50;99.90;;;;;;4916480;29;20104;-86
2022/10/04 03:47:50;;;;;;;2.05;1.20;;;12.10;99.90;;;;;;4900106;29;20060;-86
2022/10/04 03:50:25;;;;;;;2.58;1.38;;;11.80;99.90;;;;;;4917066;29;20052;-87
2022/10/04 03:52:57;;;;;;;3.28;1.52;;;11.70;99.90;;;;;;4899492;29;20074;-85
2022/10/04 03:55:32;;;;;;;4.28;1.20;;;11.70;99.90;;;;;;4899502;29;20052;-86
2022/10/04 03:57:59;;;;;;;2.65;1.23;;;11.70;99.90;;;;;;4900656;29;20096;-88
2022/10/04 04:00:25;;;;;;;3.70;1.38;;;11.60;99.90;;;;;;4898204;29;20056;-86
2022/10/04 04:03:01;;;;;;;1.63;0.93;;;11.60;99.90;;;;;;4898262;29;20505;-85
2022/10/04 04:05:43;;;;;;;;;;;11.60;99.90;;;;;;4881660;29;20052;-86
2022/10/04 04:08:26;;;;;;;2.30;1.52;;;11.50;99.90;;;;;;4881000;29;19930;-86
2022/10/04 04:10:57;;;;;;;4.95;1.40;;;11.50;99.90;;;;;;4881011;29;20056;-86
2022/10/04 04:13:26;;;;;;;2.65;1.30;;;11.50;99.90;;;;;;4880918;29;20052;-86
2022/10/04 04:15:54;;;;;;;1.98;1.10;;;11.20;99.90;;;;;;4897225;29;20045;-86
2022/10/04 04:18:28;;;;;;;6.32;1.40;;;11.50;99.90;;;;;;4880697;29;20061;-86
2022/10/04 04:20:58;;;;;;;3.05;1.50;;;11.50;99.90;;;;;;4896287;29;20073;-85
2022/10/04 04:23:31;;;;;;;3.78;1.33;;;11.50;99.90;;;;;;4881282;29;20099;-85
2022/10/04 04:26:38;;;;;;;4.32;1.60;;;11.40;99.90;;;;;;4897059;29;20048;-85
2022/10/04 04:29:20;;;;;;;;;;;11.40;99.90;;;;;;4895802;29;20051;-86
2022/10/04 04:31:56;;;;;;;2.20;1.35;;;11.40;99.90;;;;;;4880610;29;19930;-85
2022/10/04 04:34:43;;;;;;;3.15;1.33;;;11.40;99.90;;;;;;4880465;29;20053;-86
2022/10/04 04:37:09;;;;;;;1.90;1.30;;;11.30;99.90;;;;;;4877123;29;20049;-85
2022/10/04 04:39:43;;;;;;;2.90;1.83;;;12.00;99.90;;;;;;4894226;29;20053;-85
2022/10/04 04:42:16;;;;;;;3.95;1.25;;;11.30;99.90;;;;;;4880627;29;20053;-85
2022/10/04 04:44:56;;;;;;;2.75;1.30;;;11.30;99.90;;;;;;4897255;29;20052;-85
2022/10/04 04:47:35;;;;;;;2.30;1.42;;;11.30;99.90;;;;;;4896944;29;20444;-85
2022/10/04 04:50:14;;;;;;;2.08;1.10;;;11.20;99.90;;;;;;4896520;29;20056;-85
2022/10/04 04:52:44;;;;;;;3.50;1.40;;;11.50;99.90;;;;;;4862754;29;20063;-85
2022/10/04 04:55:25;;;;;;;3.58;1.60;;;11.80;99.90;;;;;;4878664;29;20052;-85
2022/10/04 04:57:54;;;;;;;1.80;1.17;;;11.10;99.90;;;;;;4883294;29;20533;-85
2022/10/04 05:00:27;;;;;;;3.08;1.17;;;11.00;99.90;;;;;;4896735;29;20099;-85
2022/10/04 05:02:55;;;;;;;2.25;1.40;;;11.00;99.90;;;;;;4895568;29;20057;-85
2022/10/04 05:05:27;;;;;;;1.27;0.98;;;10.90;99.90;;;;;;4897449;29;20096;-84
2022/10/04 05:08:18;;;;;;;2.83;1.10;;;11.00;99.90;;;;;;4895263;29;20112;-85
2022/10/04 05:10:48;;;;;;;4.22;1.60;;;10.90;99.90;;;;;;4897683;29;20053;-85
2022/10/04 05:13:15;;;;;;;2.00;1.45;;;10.80;99.90;;;;;;4899474;29;20052;-85
2022/10/04 05:15:42;;;;;;;2.03;1.42;;;11.30;99.90;;;;;;4898866;29;20096;-87
2022/10/04 05:18:51;;;;;;;5.05;1.40;;;10.50;99.90;;;;;;4898431;29;20062;-87
2022/10/04 05:21:47;;;;;;;2.35;1.40;;;10.50;99.90;;;;;;4883753;29;20059;-89
2022/10/04 05:31:38;;;;;;;2.78;1.40;;;10.50;99.90;;;;;;4221823;26;20071;-91
2022/10/04 06:59:24;;;;;;;;;;;;;;;;;;;;;
2022/10/04 07:03:10;;;;;;;;;;;;;;;;;;;;;
2022/10/04 07:06:03;;;;;;;6.15;1.90;;;10.80;99.90;;;;;;4857071;29;20053;-87
2022/10/04 07:09:14;;;;;;;;;;;;;;;;;;;;;
2022/10/04 07:11:56;;;;;;;7.25;2.58;;;11.30;99.90;;;;;;4842074;29;20590;-87
2022/10/04 07:15:01;;;;;;;7.50;2.67;;;11.40;99.90;;;;;;4856157;29;20144;-87
2022/10/04 07:17:57;;;;;;;4.07;2.55;;;11.50;99.90;;;;;;4842845;29;20098;-89
2022/10/04 07:21:06;;;;;;;;;;;;;;;;;;;;;
2022/10/04 07:31:28;;;;;;;5.95;2.35;;;11.70;99.90;;;;;;4828482;29;20408;-90
2022/10/04 07:37:11;;;;;;;7.53;2.20;;;11.80;99.90;;;;;;4951970;23;20060;-88
2022/10/04 08:00:27;;;;;;;4.55;2.85;;;13.00;99.90;;;;;;4877892;29;20144;-90
2022/10/04 08:39:40;;;;;;;3.88;1.70;;;13.20;99.90;;;;;;4703383;23;20111;-89
2022/10/04 08:48:15;;;;;;;;;;;;;;;;;;;;;
2022/10/04 09:02:47;;;;;;;5.30;3.33;;;14.40;99.90;;;;;;4920264;29;20469;-85
2022/10/04 09:09:53;;;;;;;9.93;3.65;;;14.70;99.90;;;;;;4935929;29;20047;-86
2022/10/04 09:12:22;;;;;;;5.75;2.83;;;14.90;99.90;;;;;;4905540;29;20591;-87
2022/10/04 09:53:08;;;;;;;3.75;1.85;;;16.20;99.90;;;;;;4942652;23;19979;-87
2022/10/04 10:02:27;;;;;;;5.45;1.92;;;16.40;99.90;;;;;;5544006;23;20059;-88
2022/10/04 10:15:01;;;;;;;3.50;1.33;;;16.60;99.90;;;;;;5109089;23;20063;-88
2022/10/04 10:17:57;;;;;;;6.53;1.63;;;16.60;99.90;;;;;;4900360;29;20048;-89
2022/10/04 10:20:25;;;;;;;4.55;1.77;;;16.70;99.90;;;;;;4899087;29;20173;-90
2022/10/04 10:23:03;;;;;;;5.68;1.75;;;16.70;99.90;;;;;;4899188;29;20497;-90
2022/10/04 10:26:06;;;;;;;4.10;1.35;;;16.80;99.90;;;;;;4899377;29;20065;-91
2022/10/04 10:28:44;;;;;;;4.55;1.73;;;16.50;99.90;;;;;;4899252;29;20056;-91
2022/10/04 10:31:22;;;;;;;5.28;1.80;;;17.10;99.90;;;;;;4907979;23;20084;-91
2022/10/04 10:33:57;;;;;;;3.95;1.55;;;16.90;99.90;;;;;;4903315;29;20408;-92
2022/10/04 10:36:47;;;;;;;5.33;1.93;;;16.90;99.90;;;;;;4908770;29;20060;-92
2022/10/04 10:39:46;;;;;;;7.22;2.35;;;17.00;99.90;;;;;;4908380;29;20509;-88
2022/10/04 10:42:41;;;;;;;6.40;2.17;;;17.30;99.90;;;;;;4907504;29;20052;-87
2022/10/04 11:34:11;;;;;;;4.60;1.25;;;18.20;99.90;;;;;;5803024;23;21578;31
2022/10/04 11:40:18;;;;;;;2.63;1.17;;;18.40;99.90;;;;;;4933310;29;20080;-89
2022/10/04 11:43:50;;;;;;;;;;;;;;;;;;;;;
2022/10/04 11:48:09;;;;;;;;;;;;;;;;;;;;;
2022/10/04 11:54:56;;;;;;;3.00;1.10;;;18.60;99.90;;;;;;5129686;23;20527;-88
2022/10/04 11:57:32;;;;;;;3.03;1.00;;;18.40;99.90;;;;;;5128164;23;20030;-89
2022/10/04 12:00:42;;;;;;;2.90;1.20;;;18.60;99.90;;;;;;4921121;29;20060;-92
2022/10/04 12:59:02;;;;;;;4.35;1.20;;;19.30;99.90;;;;;;5941557;23;20245;-86
2022/10/04 13:01:40;;;;;;;5.78;0.90;;;19.30;99.90;;;;;;4882548;29;20489;-88
2022/10/04 13:04:40;;;;;;;5.85;1.65;;;19.30;99.90;;;;;;4902870;24;20169;-88
2022/10/04 13:19:16;;;;;;;3.60;1.20;;;19.50;99.90;;;;;;5202246;23;20120;-88
2022/10/04 13:21:58;;;;;;;1.30;0.70;;;19.30;99.90;;;;;;4916303;29;20056;-86
2022/10/04 13:24:27;;;;;;;3.42;1.13;;;19.50;99.90;;;;;;4884532;29;20059;-88
2022/10/04 13:27:16;;;;;;;3.42;1.33;;;19.60;99.90;;;;;;5046873;23;20019;-85
2022/10/04 14:45:35;;;;;;;4.90;1.48;;;18.30;99.90;;;;;;5382284;23;20023;31
2022/10/04 14:48:56;;;;;;;3.33;1.20;;;18.40;99.90;;;;;;5056603;23;20031;31
2022/10/04 14:52:13;;;;;;;;;;;;;;;;;;;;;
2022/10/04 14:55:37;;;;;;;2.08;0.80;;;17.70;99.90;;;;;;4815355;29;20060;-90
2022/10/04 15:09:13;;;;;;;;;;;;;;;;;;;;;
2022/10/04 15:12:16;;;;;;;3.97;0.98;;;18.00;99.90;;;;;;4936998;29;20059;-86
2022/10/04 15:15:04;;;;;;;5.40;1.30;;;17.80;99.90;;;;;;4937524;29;20059;-88
2022/10/04 15:17:39;;;;;;;4.53;0.80;;;17.70;99.90;;;;;;4911938;29;20059;-86
2022/10/04 15:20:42;;;;;;;2.65;1.13;;;17.50;99.90;;;;;;4933220;29;20112;-86
2022/10/04 15:23:09;;;;;;;1.48;0.80;;;17.60;99.90;;;;;;4918161;23;20055;-91
2022/10/04 15:25:47;;;;;;;2.20;0.90;;;17.50;99.90;;;;;;4937821;29;20567;-93
2022/10/04 15:28:22;;;;;;;1.65;0.77;;;17.50;99.90;;;;;;4904735;29;20215;-89
2022/10/04 15:31:46;;;;;;;2.33;0.73;;;17.40;99.90;;;;;;4938282;29;20043;-89
2022/10/04 15:34:49;;;;;;;2.45;0.93;;;17.40;99.90;;;;;;4940763;23;20527;-90
2022/10/04 15:37:55;;;;;;;1.98;0.73;;;17.40;99.90;;;;;;4920224;29;20421;-92
2022/10/04 17:11:44;;;;;;;1.98;0.88;;;15.70;99.90;;;;;;5320828;23;20048;-84
2022/10/04 17:14:54;;;;;;;1.90;0.77;;;15.50;99.90;;;;;;4927689;29;20059;-89
2022/10/04 17:21:04;;;;;;;;;;;15.60;99.90;;;;;;5026635;23;20051;-87
2022/10/04 17:23:53;;;;;;;1.52;0.80;;;15.60;99.90;;;;;;4931573;29;19922;-84
2022/10/04 17:26:36;;;;;;;1.35;0.75;;;15.50;99.90;;;;;;4935458;29;20520;-85
2022/10/04 17:33:19;;;;;;;1.30;0.70;;;15.30;99.90;;;;;;4921700;23;20066;-86
2022/10/04 17:35:56;;;;;;;1.65;0.80;;;15.40;99.90;;;;;;4895559;29;20135;-88
2022/10/04 17:39:03;;;;;;;2.22;1.10;;;15.40;99.90;;;;;;4902990;29;20052;-91
2022/10/04 17:57:34;;;;;;;5.68;1.92;;;15.40;99.90;;;;;;4864639;29;20534;-84
2022/10/04 18:00:10;;;;;;;2.00;1.20;;;15.40;99.90;;;;;;4869506;29;20053;-84
2022/10/04 18:03:12;;;;;;;3.92;1.40;;;15.40;99.90;;;;;;4846262;29;20057;-85
2022/10/04 18:05:40;;;;;;;4.38;1.50;;;15.50;99.90;;;;;;4846323;29;20061;-84
2022/10/04 18:08:16;;;;;;;4.45;1.50;;;15.50;99.90;;;;;;4845321;29;20065;-85
2022/10/04 18:11:05;;;;;;;2.42;1.30;;;15.50;99.90;;;;;;4860627;29;20058;-84
2022/10/04 18:13:42;;;;;;;5.18;1.98;;;15.50;99.90;;;;;;4860532;29;20136;-84
2022/10/04 18:16:23;;;;;;;3.72;1.30;;;15.60;99.90;;;;;;4856667;29;20052;-84
2022/10/04 18:18:49;;;;;;;3.35;1.17;;;15.50;99.90;;;;;;4863384;29;20060;-86
2022/10/04 18:21:26;;;;;;;3.28;1.88;;;15.50;99.90;;;;;;4914558;29;20063;-84
2022/10/04 18:23:58;;;;;;;2.35;1.23;;;15.40;99.90;;;;;;4920071;29;20055;-85
2022/10/04 18:26:32;;;;;;;3.08;1.25;;;15.40;99.90;;;;;;4910274;29;20052;-86
2022/10/04 18:29:00;;;;;;;2.13;1.27;;;15.30;99.90;;;;;;4901334;29;20060;-86
2022/10/04 18:31:39;;;;;;;2.95;1.17;;;15.30;99.90;;;;;;4918001;29;20056;-87
2022/10/04 18:34:27;;;;;;;5.65;1.63;;;15.30;99.90;;;;;;4885502;29;20060;-85
2022/10/04 18:36:56;;;;;;;4.93;1.73;;;15.20;99.90;;;;;;4919041;29;20063;-86
2022/10/04 18:39:23;;;;;;;6.20;1.58;;;15.20;99.90;;;;;;4928905;29;20063;-86
2022/10/04 18:42:31;;;;;;;4.25;1.70;;;15.20;99.90;;;;;;4928137;29;20051;-85
2022/10/04 18:45:19;;;;;;;2.78;1.80;;;15.20;99.90;;;;;;4867890;29;20057;-85
2022/10/04 18:47:44;;;;;;;3.38;1.20;;;15.20;99.90;;;;;;4839353;29;20077;-86
2022/10/04 18:50:23;;;;;;;5.65;1.45;;;15.20;99.90;;;;;;4843687;29;20460;-86
2022/10/04 18:53:18;;;;;;;3.58;1.80;;;15.20;99.90;;;;;;4842673;29;20062;-85
2022/10/04 18:55:56;;;;;;;3.42;1.88;;;15.20;99.90;;;;;;4844129;29;20437;-87
2022/10/04 19:01:59;;;;;;;5.35;1.90;;;15.30;99.90;;;;;;4843854;29;20057;-86
2022/10/04 19:04:24;;;;;;;5.22;2.28;;;15.20;99.90;;;;;;4859763;29;20064;-86
2022/10/04 19:06:57;;;;;;;7.72;2.58;;;15.20;99.90;;;;;;4858543;29;20049;-83
2022/10/04 19:09:54;;;;;;;4.72;2.13;;;15.30;99.90;;;;;;4859515;29;20507;-86
2022/10/04 19:12:43;;;;;;;7.15;2.42;;;15.30;99.90;;;;;;4860409;29;20068;-85
2022/10/04 19:15:20;;;;;;;4.55;2.47;;;15.30;99.90;;;;;;4858386;29;20506;-87
2022/10/04 19:18:00;;;;;;;4.93;1.98;;;15.30;99.90;;;;;;4877626;29;20064;-85
2022/10/04 19:20:37;;;;;;;6.38;1.77;;;15.00;99.90;;;;;;4905897;29;20051;-85
2022/10/04 19:23:18;;;;;;;6.75;2.72;;;15.30;99.90;;;;;;4919099;29;20515;-87
2022/10/04 19:26:24;;;;;;;4.57;2.35;;;15.30;99.90;;;;;;4903160;29;20055;-85
2022/10/04 19:29:05;;;;;;;4.40;1.77;;;15.30;99.90;;;;;;4860521;29;20057;-86
2022/10/04 19:31:51;;;;;;;4.70;1.70;;;15.30;99.90;;;;;;4875523;29;20124;-87
2022/10/04 19:34:25;;;;;;;4.07;1.77;;;15.30;99.90;;;;;;4877232;29;20520;-85
2022/10/04 19:37:23;;;;;;;7.47;1.98;;;15.30;99.90;;;;;;4876419;29;20052;-85
2022/10/04 19:39:59;;;;;;;4.20;2.20;;;15.30;99.90;;;;;;4861939;29;20065;-85
2022/10/04 19:42:33;;;;;;;5.72;2.00;;;15.30;99.90;;;;;;4876967;29;20041;-86
2022/10/04 19:45:25;;;;;;;7.70;2.47;;;15.40;99.90;;;;;;4869401;29;20144;-86
2022/10/04 19:47:55;;;;;;;5.13;1.85;;;15.40;99.90;;;;;;4843155;29;20494;-86
2022/10/04 19:50:32;;;;;;;6.35;2.35;;;15.40;99.90;;;;;;4843208;29;20463;-87
2022/10/04 19:53:06;;;;;;;4.82;1.73;;;15.40;99.90;;;;;;4843524;29;20106;-87
2022/10/04 19:55:53;;;;;;;8.50;2.53;;;15.40;99.90;;;;;;4869983;29;20430;-86
2022/10/04 19:58:28;;;;;;;5.40;1.77;;;15.40;99.90;;;;;;4859769;29;20061;-87
2022/10/04 20:00:54;;;;;;;5.80;1.98;;;15.40;99.90;;;;;;4858197;29;20061;-87
2022/10/04 20:03:20;;;;;;;5.10;1.90;;;15.30;99.90;;;;;;4885403;29;20064;-86
2022/10/04 20:05:48;;;;;;;7.00;2.25;;;15.30;99.90;;;;;;4899791;29;20055;-87
2022/10/04 20:08:35;;;;;;;5.15;2.28;;;15.40;99.90;;;;;;4899997;29;20051;-86
2022/10/04 20:11:43;;;;;;;5.78;2.20;;;15.20;99.90;;;;;;4899752;29;20056;-87
2022/10/04 20:14:20;;;;;;;5.35;1.77;;;15.40;99.90;;;;;;4917291;29;20187;-87
2022/10/04 20:16:46;;;;;;;3.47;1.80;;;15.40;99.90;;;;;;4901087;29;20064;-87
2022/10/04 20:19:19;;;;;;;3.17;1.88;;;15.30;99.90;;;;;;4909311;29;20048;-86
2022/10/04 20:21:45;;;;;;;4.22;2.42;;;15.30;99.90;;;;;;4916927;29;20074;-88
2022/10/04 20:24:37;;;;;;;5.82;2.08;;;15.40;99.90;;;;;;4900000;29;20051;-88
2022/10/04 20:27:07;;;;;;;3.95;2.60;;;15.40;99.90;;;;;;4858603;29;20206;-87
2022/10/04 20:29:36;;;;;;;7.45;2.42;;;15.40;99.90;;;;;;4861306;29;20060;-87
2022/10/04 20:32:12;;;;;;;5.00;1.98;;;15.40;99.90;;;;;;4853039;29;20058;-87
2022/10/04 20:34:37;;;;;;;;;;;15.30;99.90;;;;;;4859123;29;20054;-87
2022/10/04 20:37:05;;;;;;;4.28;2.65;;;15.30;99.90;;;;;;4859607;29;20298;-88
2022/10/04 20:39:39;;;;;;;6.38;2.58;;;15.40;99.90;;;;;;4854212;29;20049;-88
2022/10/04 20:42:33;;;;;;;3.72;1.98;;;15.40;99.90;;;;;;4880980;29;20049;-87
2022/10/04 20:45:20;;;;;;;4.10;1.85;;;15.40;99.90;;;;;;4865311;29;20577;-86
2022/10/04 20:47:49;;;;;;;3.53;1.50;;;15.50;99.90;;;;;;4879163;29;20055;-87
2022/10/04 20:50:34;;;;;;;6.25;2.33;;;15.40;99.90;;;;;;4879054;29;20132;-86
2022/10/04 20:53:04;;;;;;;6.30;2.30;;;15.40;99.90;;;;;;4879303;29;20132;-85
2022/10/04 20:55:47;;;;;;;4.47;2.38;;;15.80;99.90;;;;;;4860861;29;20490;-87
2022/10/04 20:58:34;;;;;;;5.28;1.70;;;15.50;99.90;;;;;;4866166;29;20148;-85
2022/10/04 21:01:37;;;;;;;3.53;2.00;;;15.40;99.90;;;;;;4863670;29;20124;-85
2022/10/04 21:04:48;;;;;;;7.00;2.08;;;15.30;99.90;;;;;;4888509;29;20063;-85
2022/10/04 21:07:29;;;;;;;3.97;2.00;;;15.00;99.90;;;;;;4938921;29;20055;-85
2022/10/04 21:10:07;;;;;;;3.65;2.10;;;15.30;99.90;;;;;;4938913;29;20079;-83
2022/10/04 21:12:33;;;;;;;4.35;1.95;;;15.30;99.90;;;;;;4921618;29;20059;-86
2022/10/04 21:15:10;;;;;;;6.03;1.88;;;15.30;99.90;;;;;;4938742;29;20051;-85
2022/10/04 21:17:36;;;;;;;3.25;1.65;;;15.30;99.90;;;;;;4902976;29;20074;-86
2022/10/04 21:20:03;;;;;;;4.05;1.67;;;15.30;99.90;;;;;;4903266;29;20396;-85
2022/10/04 21:22:30;;;;;;;3.90;1.88;;;15.30;99.90;;;;;;4903028;29;20075;-86
2022/10/04 21:24:56;;;;;;;4.07;2.40;;;15.20;99.90;;;;;;4919899;29;20048;-84
2022/10/04 21:27:34;;;;;;;2.38;1.35;;;15.20;99.90;;;;;;4919464;29;20064;-85
2022/10/04 21:30:01;;;;;;;3.03;1.50;;;15.20;99.90;;;;;;4919819;29;20085;-86
2022/10/04 21:32:33;;;;;;;5.13;3.28;;;15.20;99.90;;;;;;4915059;29;20095;-85
2022/10/04 21:34:59;;;;;;;5.47;2.20;;;15.20;99.90;;;;;;4938557;29;20055;-85
2022/10/04 21:37:25;;;;;;;4.45;1.98;;;15.20;99.90;;;;;;4938375;29;20050;-87
2022/10/04 21:39:50;;;;;;;5.20;2.15;;;15.20;99.90;;;;;;4922894;29;20135;-85
2022/10/04 21:42:17;;;;;;;5.65;2.25;;;15.20;99.90;;;;;;4919217;29;20449;-86
2022/10/04 21:44:43;;;;;;;3.50;2.00;;;15.20;99.90;;;;;;4910432;29;20123;-85
2022/10/04 21:47:09;;;;;;;7.40;2.15;;;15.20;99.90;;;;;;4938344;29;20138;-85
2022/10/04 21:49:34;;;;;;;4.00;1.70;;;15.20;99.90;;;;;;4921307;29;20413;-85
2022/10/04 21:52:00;;;;;;;2.28;1.20;;;15.30;99.90;;;;;;4937157;29;20070;-85
2022/10/04 21:54:26;;;;;;;6.50;1.88;;;15.40;99.90;;;;;;4938185;29;20404;-85
2022/10/04 21:56:52;;;;;;;6.57;2.45;;;15.20;99.90;;;;;;4937506;29;20134;-84
2022/10/04 21:59:19;;;;;;;4.03;1.83;;;15.20;99.90;;;;;;4919014;29;20051;-85
2022/10/04 22:01:45;;;;;;;4.40;2.10;;;15.20;99.90;;;;;;4919095;29;20044;-85
2022/10/04 22:04:11;;;;;;;4.15;2.63;;;15.20;99.90;;;;;;4925710;29;20553;-85
2022/10/04 22:06:37;;;;;;;6.00;2.60;;;15.20;99.90;;;;;;4938077;29;20059;-84
2022/10/04 22:09:03;;;;;;;4.78;1.92;;;15.20;99.90;;;;;;4921002;29;20412;-86
2022/10/04 22:11:28;;;;;;;3.25;1.98;;;15.10;99.90;;;;;;4937575;29;20055;-85
2022/10/04 22:13:54;;;;;;;5.25;2.10;;;15.20;99.90;;;;;;4919009;29;20066;-85
2022/10/04 22:16:20;;;;;;;5.93;2.58;;;15.20;99.90;;;;;;4920721;29;20056;-84
2022/10/04 22:18:45;;;;;;;6.45;2.35;;;15.20;99.90;;;;;;4920411;29;20049;-86
2022/10/04 22:21:11;;;;;;;5.47;2.88;;;15.20;99.90;;;;;;4919301;29;20078;-85
2022/10/04 22:23:42;;;;;;;3.92;2.30;;;15.30;99.90;;;;;;4918698;29;20048;-86
2022/10/04 22:26:11;;;;;;;4.95;2.30;;;15.20;99.90;;;;;;4927081;29;20456;-84
2022/10/04 22:28:41;;;;;;;5.38;2.33;;;15.20;99.90;;;;;;4937666;29;20548;-85
2022/10/04 22:31:11;;;;;;;3.83;2.15;;;15.20;99.90;;;;;;4937449;29;20051;-84
2022/10/04 22:33:40;;;;;;;4.53;2.13;;;15.40;99.90;;;;;;4935592;29;20123;-86
2022/10/04 22:36:23;;;;;;;4.57;2.28;;;15.20;99.90;;;;;;4920152;29;20393;-85
2022/10/04 22:38:59;;;;;;;4.35;2.22;;;15.20;99.90;;;;;;4936993;29;20118;-86
2022/10/04 22:41:35;;;;;;;4.00;2.03;;;15.20;99.90;;;;;;4936442;29;20051;-84
2022/10/04 22:44:20;;;;;;;4.47;1.50;;;15.20;99.90;;;;;;4920011;29;20063;-85
2022/10/04 22:46:57;;;;;;;4.75;2.17;;;15.10;99.90;;;;;;4919124;29;20529;-85
2022/10/04 22:49:31;;;;;;;7.38;2.20;;;15.10;99.90;;;;;;4904086;29;20488;-85
2022/10/04 22:51:59;;;;;;;4.57;2.30;;;15.10;99.90;;;;;;4919545;29;20063;-85
2022/10/04 22:54:33;;;;;;;4.78;1.95;;;15.20;99.90;;;;;;4924595;29;20056;-85
2022/10/04 22:56:59;;;;;;;4.07;2.50;;;15.10;99.90;;;;;;4911870;29;20052;-85
2022/10/04 22:59:43;;;;;;;5.45;2.13;;;15.50;99.90;;;;;;4917616;29;20124;-86
2022/10/04 23:02:25;;;;;;;4.88;2.92;;;15.10;99.90;;;;;;4900409;29;20058;-86
2022/10/04 23:05:17;;;;;;;4.47;2.20;;;15.10;99.90;;;;;;4900677;29;20056;-85
2022/10/04 23:07:45;;;;;;;6.85;2.72;;;15.20;99.90;;;;;;4911487;29;20413;-86
2022/10/04 23:10:12;;;;;;;7.10;3.20;;;15.50;99.90;;;;;;4917387;29;20095;-85
2022/10/04 23:12:39;;;;;;;6.47;2.70;;;15.30;99.90;;;;;;4924442;29;20056;-86
2022/10/04 23:15:06;;;;;;;4.32;2.33;;;15.20;99.90;;;;;;4919053;29;20055;-86
2022/10/04 23:17:38;;;;;;;6.28;2.20;;;15.20;99.90;;;;;;4936332;29;20055;-85
2022/10/04 23:20:13;;;;;;;5.88;2.83;;;15.20;99.90;;;;;;4934541;29;20278;-86
2022/10/04 23:22:42;;;;;;;3.45;2.30;;;15.20;99.90;;;;;;4935474;29;20504;-85
2022/10/04 23:25:15;;;;;;;5.32;2.63;;;15.20;99.90;;;;;;4919040;29;20055;-85
2022/10/04 23:27:41;;;;;;;5.45;2.75;;;15.20;99.90;;;;;;4936378;29;20198;-86
2022/10/04 23:30:14;;;;;;;5.65;2.05;;;15.20;99.90;;;;;;4935941;29;20508;-85
2022/10/04 23:32:42;;;;;;;5.15;2.58;;;15.20;99.90;;;;;;4935879;29;20048;-85
2022/10/04 23:35:24;;;;;;;5.15;2.05;;;15.20;99.90;;;;;;4935179;29;20568;-85
2022/10/04 23:37:52;;;;;;;7.57;3.25;;;15.30;99.90;;;;;;4933254;29;20066;-86
2022/10/04 23:40:20;;;;;;;6.28;3.70;;;15.30;99.90;;;;;;4899924;29;20064;-85
2022/10/04 23:42:49;;;;;;;8.60;3.17;;;15.30;99.90;;;;;;4917040;29;20044;-85
2022/10/04 23:45:25;;;;;;;3.55;2.25;;;15.30;99.90;;;;;;4900449;29;20457;-85
2022/10/04 23:47:52;;;;;;;;;;;15.30;99.90;;;;;;4900260;29;20120;-84
2022/10/04 23:50:28;;;;;;;5.50;3.08;;;15.30;99.90;;;;;;4916866;29;19927;-85